Terminal Aerodrome Forecast
Issued by NWS

Home | Current Version | Previous Version | Text Only | Print | Product List | Glossary On
Versions: 1 2 3 4 5 6 7 8 9 10 11 12
000
FTUS45 KTFX 282300
TAFBZN
TAF
KBZN 282338Z 2900/2924 24005KT P6SM SCT100
     FM290200 VRB06KT P6SM VCSH SCT100 BKN180
     FM290700 17005KT P6SM SKC
     FM291600 VRB04KT P6SM BKN250
     FM292000 VRB06KT P6SM FEW090=

USA.gov is the U.S. government's official web portal to all federal, state and local government web resources and services.